Time;durP1;ratioP1;P1;durP2;ratioP2;P2;SDS_P1;SDS_P2;PMS_P1;PMS_P2;Temp;Humidity;BMP_temperature;BMP_pressure;BME280_temperature;BME280_humidity;BME280_pressure;Samples;Min_cycle;Max_cycle;Signal;HPM_P1;HPM_P2
2021/12/23 00:00:47;;;;;;;18.50;10.52;;;1.50;82.50;;;;;;5049423;28;20044;-69
2021/12/23 00:03:13;;;;;;;18.48;9.80;;;1.50;82.40;;;;;;5049005;28;20134;-69
2021/12/23 00:05:39;;;;;;;14.52;8.85;;;1.50;82.50;;;;;;5048412;28;20405;-69
2021/12/23 00:08:04;;;;;;;18.10;9.73;;;1.50;82.50;;;;;;5049618;28;20091;-69
2021/12/23 00:10:30;;;;;;;23.77;12.45;;;1.50;82.60;;;;;;5045216;28;20068;-69
2021/12/23 00:12:56;;;;;;;17.45;9.10;;;1.50;82.60;;;;;;5030123;28;20132;-69
2021/12/23 00:15:31;;;;;;;17.25;9.82;;;1.50;82.60;;;;;;5039687;28;20067;-70
2021/12/23 00:18:29;;;;;;;14.75;9.73;;;1.60;82.60;;;;;;5030457;28;20045;-69
2021/12/23 00:23:42;;;;;;;18.75;9.82;;;1.60;82.60;;;;;;5037603;28;20045;-70
2021/12/23 00:26:08;;;;;;;18.80;10.20;;;1.50;82.60;;;;;;5049496;28;20167;-69
2021/12/23 00:28:34;;;;;;;16.17;10.27;;;1.60;82.70;;;;;;5048359;28;20506;-69
2021/12/23 00:31:01;;;;;;;17.90;10.25;;;1.60;82.60;;;;;;5047780;28;20045;-69
2021/12/23 00:33:28;;;;;;;20.35;9.88;;;1.70;82.60;;;;;;5048955;28;20045;-70
2021/12/23 00:35:55;;;;;;;17.63;9.82;;;1.70;82.60;;;;;;5049316;28;20051;-70
2021/12/23 00:38:48;;;;;;;19.27;10.27;;;1.70;82.50;;;;;;5049441;28;20486;-69
2021/12/23 00:41:09;;;;;;;14.60;9.57;;;1.70;82.50;;;;;;5048602;28;20132;-69
2021/12/23 00:43:36;;;;;;;16.83;9.00;;;1.70;82.50;;;;;;5045071;28;20048;-69
2021/12/23 00:46:03;;;;;;;16.15;10.02;;;1.70;82.40;;;;;;5048297;28;20045;-70
2021/12/23 00:48:30;;;;;;;13.40;9.43;;;1.80;82.30;;;;;;5049009;28;20516;-69
2021/12/23 00:50:56;;;;;;;17.35;9.68;;;1.80;82.30;;;;;;5048831;28;21142;-70
2021/12/23 00:53:23;;;;;;;19.33;10.13;;;1.70;82.20;;;;;;5048667;28;20049;-69
2021/12/23 00:55:54;;;;;;;17.95;10.98;;;1.70;82.20;;;;;;5048818;28;20098;-69
2021/12/23 00:58:21;;;;;;;14.48;9.80;;;1.70;82.20;;;;;;5048542;28;20073;-69
2021/12/23 01:00:48;;;;;;;14.45;8.93;;;1.70;82.20;;;;;;5046833;28;20101;-70
2021/12/23 01:03:13;;;;;;;15.65;9.73;;;1.60;82.20;;;;;;5047087;28;20045;-70
2021/12/23 01:05:39;;;;;;;16.30;9.35;;;1.60;82.30;;;;;;5047980;28;20056;-69
2021/12/23 01:08:05;;;;;;;15.68;8.57;;;1.50;82.30;;;;;;5046487;28;20506;-70
2021/12/23 01:10:31;;;;;;;16.70;9.82;;;1.50;82.30;;;;;;5048370;28;20056;-70
2021/12/23 01:13:01;;;;;;;15.90;9.52;;;1.40;82.30;;;;;;5046161;28;20444;-70
2021/12/23 01:18:00;;;;;;;16.77;9.35;;;1.40;82.40;;;;;;5046408;28;20055;-69
2021/12/23 01:20:31;;;;;;;25.25;12.80;;;1.40;82.50;;;;;;5044397;28;20094;-69
2021/12/23 01:23:04;;;;;;;17.40;10.10;;;1.30;82.60;;;;;;5046196;28;20118;-70
2021/12/23 01:25:32;;;;;;;14.77;8.85;;;1.20;82.60;;;;;;5048467;28;20103;-69
2021/12/23 01:27:58;;;;;;;15.18;8.90;;;1.20;82.70;;;;;;5042381;28;20051;-69
2021/12/23 01:30:24;;;;;;;16.35;9.95;;;1.00;83.10;;;;;;5052511;28;20033;-69
2021/12/23 01:32:51;;;;;;;15.02;8.68;;;0.90;83.10;;;;;;5050958;28;20048;-69
2021/12/23 01:35:18;;;;;;;15.65;9.23;;;0.80;83.50;;;;;;5046147;28;20097;-69
2021/12/23 01:37:44;;;;;;;14.90;9.55;;;0.90;83.50;;;;;;5051852;28;20112;-69
2021/12/23 01:40:12;;;;;;;15.40;9.52;;;0.90;83.30;;;;;;5051506;28;20094;-69
2021/12/23 01:42:39;;;;;;;14.27;8.98;;;0.90;83.40;;;;;;5032985;28;20041;-69
2021/12/23 01:45:13;;;;;;;15.48;9.63;;;1.00;83.40;;;;;;5039761;28;20060;-69
2021/12/23 01:47:39;;;;;;;14.15;9.80;;;1.00;83.40;;;;;;5050898;28;20041;-70
2021/12/23 01:50:07;;;;;;;18.17;9.48;;;1.00;83.30;;;;;;5039233;28;20037;-69
2021/12/23 01:52:33;;;;;;;15.05;9.95;;;1.10;83.20;;;;;;5049724;28;20783;-70
2021/12/23 01:54:58;;;;;;;16.02;8.95;;;1.10;83.20;;;;;;5050745;28;20041;-70
2021/12/23 01:57:29;;;;;;;15.82;9.30;;;1.10;83.10;;;;;;5051001;28;20037;-70
2021/12/23 01:59:55;;;;;;;15.77;9.25;;;1.20;83.10;;;;;;5051253;28;20045;-69
2021/12/23 02:02:20;;;;;;;15.40;9.20;;;1.20;83.00;;;;;;5051166;28;20056;-70
2021/12/23 02:04:46;;;;;;;15.70;10.20;;;1.20;82.90;;;;;;5032931;28;20068;-70
2021/12/23 02:07:13;;;;;;;15.85;9.18;;;1.30;82.80;;;;;;5045150;28;20144;-69
2021/12/23 02:09:38;;;;;;;17.05;9.88;;;1.30;82.80;;;;;;5051601;28;20081;-70
2021/12/23 02:12:04;;;;;;;15.02;8.93;;;1.40;82.70;;;;;;5040819;28;20045;-69
2021/12/23 02:14:30;;;;;;;16.13;9.43;;;1.40;82.60;;;;;;5050982;28;20045;-69
2021/12/23 02:16:56;;;;;;;14.15;10.23;;;1.40;82.60;;;;;;5051401;28;20379;-69
2021/12/23 02:19:21;;;;;;;14.18;8.48;;;1.40;82.60;;;;;;5049800;28;20052;-69
2021/12/23 02:21:48;;;;;;;17.52;9.85;;;1.50;82.50;;;;;;5045682;28;20061;-69
2021/12/23 02:24:16;;;;;;;19.38;9.90;;;1.40;82.40;;;;;;5032464;28;20049;-70
2021/12/23 02:26:43;;;;;;;17.27;9.43;;;1.40;82.40;;;;;;5049309;28;20468;-70
2021/12/23 02:29:09;;;;;;;16.15;9.82;;;1.40;82.50;;;;;;5050692;28;20088;-70
2021/12/23 02:31:35;;;;;;;16.08;8.95;;;1.30;82.50;;;;;;5048812;28;20037;-69
2021/12/23 02:34:02;;;;;;;18.27;10.05;;;1.30;82.80;;;;;;5050325;28;20049;-69
2021/12/23 02:36:30;;;;;;;13.75;8.95;;;1.30;82.80;;;;;;5049192;28;20067;-69
2021/12/23 02:38:56;;;;;;;17.00;10.02;;;1.30;83.00;;;;;;5044815;28;20099;-70
2021/12/23 02:41:22;;;;;;;16.92;10.18;;;1.30;82.80;;;;;;5043123;28;20041;-69
2021/12/23 02:43:47;;;;;;;17.65;10.10;;;1.20;82.70;;;;;;5029887;28;20106;-69
2021/12/23 02:46:13;;;;;;;16.05;9.35;;;1.10;83.10;;;;;;5049553;28;20044;-69
2021/12/23 02:48:40;;;;;;;16.70;9.70;;;1.10;83.10;;;;;;5050023;28;20132;-70
2021/12/23 02:51:10;;;;;;;15.57;9.60;;;1.10;83.10;;;;;;5049139;28;20135;-69
2021/12/23 02:53:37;;;;;;;16.60;10.52;;;1.10;83.20;;;;;;5050078;28;20055;-69
2021/12/23 02:56:05;;;;;;;16.20;10.27;;;1.10;83.20;;;;;;5049301;28;20051;-70
2021/12/23 02:58:32;;;;;;;15.60;8.85;;;1.10;83.40;;;;;;5046414;28;20036;-70
2021/12/23 03:01:00;;;;;;;16.13;10.05;;;1.10;83.40;;;;;;5048653;28;20056;-69
2021/12/23 03:03:26;;;;;;;18.73;11.55;;;1.20;83.40;;;;;;5049959;28;20045;-69
2021/12/23 03:05:55;;;;;;;17.15;10.13;;;1.20;83.30;;;;;;5049980;28;20043;-70
2021/12/23 03:08:34;;;;;;;17.00;9.48;;;1.20;83.20;;;;;;5048845;28;20049;-69
2021/12/23 03:11:00;;;;;;;16.52;9.93;;;1.20;83.20;;;;;;5049879;28;20053;-69
2021/12/23 03:13:26;;;;;;;19.20;11.02;;;1.20;83.00;;;;;;5049878;28;20511;-69
2021/12/23 03:15:52;;;;;;;18.75;10.77;;;1.20;83.00;;;;;;5048918;28;20044;-70
2021/12/23 03:18:18;;;;;;;19.48;10.23;;;1.20;82.90;;;;;;5046833;28;20037;-70
2021/12/23 03:20:43;;;;;;;17.95;10.13;;;1.20;83.00;;;;;;5032198;28;20041;-69
2021/12/23 03:23:09;;;;;;;18.75;11.05;;;1.20;82.80;;;;;;5049789;28;20477;-69
2021/12/23 03:25:35;;;;;;;18.52;10.73;;;1.10;82.80;;;;;;5049217;28;20045;-69
2021/12/23 03:28:00;;;;;;;17.23;10.68;;;1.10;82.90;;;;;;5046068;28;20490;-70
2021/12/23 03:30:26;;;;;;;16.30;10.45;;;1.20;83.10;;;;;;5041659;28;20041;-70
2021/12/23 03:32:52;;;;;;;18.10;10.23;;;1.10;83.00;;;;;;5048447;28;20041;-69
2021/12/23 03:35:17;;;;;;;17.83;10.38;;;1.10;82.90;;;;;;5049597;28;20509;-69
2021/12/23 03:37:44;;;;;;;20.38;10.50;;;1.10;83.10;;;;;;5048085;28;20037;-69
2021/12/23 03:40:11;;;;;;;19.75;11.05;;;1.20;83.10;;;;;;5045915;28;20048;-69
2021/12/23 03:42:37;;;;;;;20.23;9.73;;;1.20;83.00;;;;;;5048883;28;20121;-69
2021/12/23 03:45:03;;;;;;;15.07;9.80;;;1.20;82.80;;;;;;5048329;28;20045;-70
2021/12/23 03:47:29;;;;;;;20.63;13.23;;;1.30;82.80;;;;;;5048062;28;20053;-69
2021/12/23 03:49:55;;;;;;;19.40;10.95;;;1.40;82.70;;;;;;5042791;28;20048;-69
2021/12/23 03:52:20;;;;;;;16.33;10.50;;;1.40;82.60;;;;;;5048507;28;20095;-70
2021/12/23 03:54:46;;;;;;;18.15;10.30;;;1.50;82.50;;;;;;5049146;28;20048;-70
2021/12/23 03:57:11;;;;;;;18.73;10.80;;;1.40;82.30;;;;;;5047453;28;20081;-70
2021/12/23 03:59:37;;;;;;;13.77;10.10;;;1.40;82.20;;;;;;5047003;28;20049;-70
2021/12/23 04:02:04;;;;;;;16.85;10.43;;;1.40;82.20;;;;;;5047965;28;20116;-70
2021/12/23 04:04:29;;;;;;;16.02;10.43;;;1.40;82.20;;;;;;5048266;28;20045;-70
2021/12/23 04:06:55;;;;;;;21.88;11.23;;;1.40;82.30;;;;;;5048815;28;20528;-69
2021/12/23 04:09:21;;;;;;;16.50;10.68;;;1.50;82.20;;;;;;5024993;28;20508;-69
2021/12/23 04:11:46;;;;;;;21.35;11.25;;;1.50;82.20;;;;;;5047959;28;20122;-70
2021/12/23 04:14:12;;;;;;;17.95;10.43;;;1.40;82.00;;;;;;5047813;28;20563;-69
2021/12/23 04:16:37;;;;;;;17.98;10.77;;;1.40;82.10;;;;;;5047067;28;20048;-69
2021/12/23 04:19:07;;;;;;;20.58;11.50;;;1.40;82.20;;;;;;5048058;28;20643;-69
2021/12/23 04:21:33;;;;;;;23.25;11.88;;;1.40;82.20;;;;;;5039239;28;20493;-69
2021/12/23 04:23:59;;;;;;;19.30;12.65;;;1.40;82.10;;;;;;5047604;28;20064;-69
2021/12/23 04:26:24;;;;;;;19.25;11.02;;;1.40;82.00;;;;;;5047766;28;20834;-69
2021/12/23 04:28:51;;;;;;;15.20;10.48;;;1.40;82.00;;;;;;5047951;28;20029;-70
2021/12/23 04:31:20;;;;;;;20.55;11.25;;;1.40;82.10;;;;;;5031250;28;20076;-70
2021/12/23 04:33:48;;;;;;;20.73;10.52;;;1.40;82.40;;;;;;5048542;28;20785;-70
2021/12/23 04:36:15;;;;;;;16.42;9.90;;;1.40;82.40;;;;;;5048042;28;20044;-69
2021/12/23 04:38:43;;;;;;;16.65;10.93;;;1.30;82.40;;;;;;5047777;28;20103;-69
2021/12/23 04:41:09;;;;;;;15.82;11.05;;;1.20;82.50;;;;;;5030541;28;20049;-69
2021/12/23 04:43:35;;;;;;;17.50;10.40;;;1.20;82.80;;;;;;5048360;28;20053;-70
2021/12/23 04:46:01;;;;;;;18.00;11.90;;;1.20;82.80;;;;;;5048117;28;20515;-69
2021/12/23 04:48:27;;;;;;;16.55;10.32;;;1.10;83.10;;;;;;5042257;28;20034;-69
2021/12/23 04:50:52;;;;;;;18.05;11.30;;;1.20;83.20;;;;;;5048778;28;20037;-70
2021/12/23 04:53:18;;;;;;;19.67;12.00;;;1.20;83.30;;;;;;5048403;28;20062;-69
2021/12/23 04:55:44;;;;;;;18.83;11.93;;;1.10;83.30;;;;;;5049412;28;20063;-69
2021/12/23 04:58:09;;;;;;;17.90;11.18;;;1.10;83.40;;;;;;5045274;28;20048;-69
2021/12/23 05:00:35;;;;;;;17.23;11.32;;;1.10;83.30;;;;;;5032821;28;20120;-69
2021/12/23 05:03:01;;;;;;;19.23;11.57;;;1.20;83.30;;;;;;5048902;28;20065;-69
2021/12/23 05:05:27;;;;;;;21.35;12.93;;;1.20;83.20;;;;;;5052797;28;20049;-70
2021/12/23 05:07:52;;;;;;;19.38;11.88;;;1.20;83.30;;;;;;5052616;28;20536;-69
2021/12/23 05:10:19;;;;;;;20.42;12.13;;;1.20;83.00;;;;;;5034333;28;20046;-69
2021/12/23 05:12:46;;;;;;;21.05;12.20;;;1.20;83.00;;;;;;5052959;28;20053;-70
2021/12/23 05:15:17;;;;;;;18.13;11.27;;;1.20;83.20;;;;;;5051921;28;20095;-70
2021/12/23 05:17:43;;;;;;;17.17;11.82;;;1.20;83.30;;;;;;5052253;28;20040;-70
2021/12/23 05:20:11;;;;;;;18.25;12.55;;;1.10;83.40;;;;;;5048510;28;20505;-70
2021/12/23 05:22:37;;;;;;;19.98;12.85;;;1.10;83.60;;;;;;5052246;28;20661;-69
2021/12/23 05:25:05;;;;;;;20.98;12.93;;;1.10;83.50;;;;;;5052798;28;20048;-70
2021/12/23 05:27:30;;;;;;;17.80;11.88;;;1.10;83.60;;;;;;5052487;28;20044;-70
2021/12/23 05:29:56;;;;;;;19.63;12.60;;;1.20;83.40;;;;;;5051802;28;20033;-70
2021/12/23 05:32:21;;;;;;;18.73;12.35;;;1.20;83.30;;;;;;5052244;28;20033;-70
2021/12/23 05:34:47;;;;;;;18.52;12.00;;;1.20;83.20;;;;;;5050626;28;20116;-70
2021/12/23 05:37:13;;;;;;;20.67;12.75;;;1.20;83.30;;;;;;5050440;28;20049;-69
2021/12/23 05:39:38;;;;;;;21.65;12.73;;;1.20;83.20;;;;;;5038773;28;20045;-70
2021/12/23 05:42:04;;;;;;;22.15;11.95;;;1.20;83.50;;;;;;5049684;28;20052;-70
2021/12/23 05:44:30;;;;;;;20.02;11.98;;;1.20;83.30;;;;;;5051555;28;20052;-69
2021/12/23 05:46:56;;;;;;;21.20;13.13;;;1.30;83.20;;;;;;5051875;28;20053;-70
2021/12/23 05:49:22;;;;;;;19.67;13.27;;;1.20;83.30;;;;;;5032832;28;20045;-70
2021/12/23 05:51:47;;;;;;;19.70;12.18;;;1.20;83.30;;;;;;5052241;28;20064;-70
2021/12/23 05:54:13;;;;;;;18.75;12.48;;;1.30;83.10;;;;;;5050148;28;20391;-70
2021/12/23 05:56:39;;;;;;;20.67;12.32;;;1.30;83.00;;;;;;5052168;28;20048;-70
2021/12/23 05:59:05;;;;;;;20.33;12.20;;;1.30;83.00;;;;;;5049625;28;20044;-70
2021/12/23 06:01:31;;;;;;;18.38;11.77;;;1.20;83.00;;;;;;5050418;28;20045;-70
2021/12/23 06:03:57;;;;;;;18.55;11.85;;;1.30;82.90;;;;;;5050940;28;20243;-70
2021/12/23 06:06:23;;;;;;;21.38;12.55;;;1.30;82.80;;;;;;5051754;28;20489;-70
2021/12/23 06:08:49;;;;;;;20.02;12.55;;;1.30;83.00;;;;;;5049940;28;20041;-70
2021/12/23 06:11:14;;;;;;;21.95;11.30;;;1.20;83.00;;;;;;5051779;28;20041;-70
2021/12/23 06:13:40;;;;;;;20.98;12.77;;;1.20;83.30;;;;;;5050980;28;20398;-69
2021/12/23 06:16:06;;;;;;;21.98;12.05;;;1.20;83.10;;;;;;5046053;28;20079;-70
2021/12/23 06:18:31;;;;;;;18.75;11.88;;;1.20;83.10;;;;;;5049145;28;20080;-70
2021/12/23 06:20:57;;;;;;;19.35;12.15;;;1.20;83.20;;;;;;5050114;28;20049;-70
2021/12/23 06:23:23;;;;;;;21.98;13.30;;;1.20;83.30;;;;;;5047123;28;20033;-70
2021/12/23 06:25:48;;;;;;;26.83;12.68;;;1.20;83.30;;;;;;5050596;28;20072;-69
2021/12/23 06:28:14;;;;;;;18.83;12.27;;;1.30;83.30;;;;;;5051443;28;20045;-70
2021/12/23 06:30:40;;;;;;;24.30;13.10;;;1.20;83.40;;;;;;5050213;28;20400;-70
2021/12/23 06:33:05;;;;;;;21.77;12.52;;;1.30;83.50;;;;;;5031866;28;20045;-70
2021/12/23 06:35:32;;;;;;;22.88;13.80;;;1.30;83.20;;;;;;5047098;28;20048;-69
2021/12/23 06:38:02;;;;;;;20.58;11.85;;;1.30;83.30;;;;;;5050915;28;20037;-70
2021/12/23 06:40:28;;;;;;;19.80;13.02;;;1.30;83.40;;;;;;5032454;28;20090;-69
2021/12/23 06:42:54;;;;;;;22.17;13.55;;;1.30;83.20;;;;;;5051077;28;20041;-70
2021/12/23 06:45:20;;;;;;;21.58;12.77;;;1.30;83.20;;;;;;5050830;28;20405;-69
2021/12/23 06:47:45;;;;;;;20.88;13.48;;;1.30;83.20;;;;;;5049841;28;20132;-69
2021/12/23 06:50:13;;;;;;;21.13;13.13;;;1.30;83.20;;;;;;5046897;28;20045;-69
2021/12/23 06:52:39;;;;;;;18.70;12.30;;;1.30;83.20;;;;;;5049966;28;20496;-69
2021/12/23 06:55:08;;;;;;;18.58;12.63;;;1.30;83.30;;;;;;5047155;28;20127;-70
2021/12/23 06:57:33;;;;;;;18.90;12.70;;;1.30;83.10;;;;;;5036722;28;20037;-69
2021/12/23 06:59:59;;;;;;;22.33;13.13;;;1.30;83.30;;;;;;5032516;28;20063;-69
2021/12/23 07:02:26;;;;;;;20.02;12.55;;;1.20;83.30;;;;;;5033682;28;20048;-69
2021/12/23 07:04:51;;;;;;;22.00;12.80;;;1.30;83.50;;;;;;5043129;28;20046;-70
2021/12/23 07:10:07;;;;;;;22.65;13.68;;;1.20;83.60;;;;;;5028492;28;20076;-69
2021/12/23 07:12:33;;;;;;;21.23;12.48;;;1.20;83.70;;;;;;5034298;28;20040;-69
2021/12/23 07:14:59;;;;;;;26.77;14.23;;;1.20;83.80;;;;;;5046129;28;20502;-69
2021/12/23 07:17:24;;;;;;;23.17;13.85;;;1.20;83.90;;;;;;5048123;28;20227;-69
2021/12/23 07:19:50;;;;;;;20.88;13.90;;;1.30;83.70;;;;;;5042325;28;20048;-69
2021/12/23 07:22:15;;;;;;;24.38;13.70;;;1.20;83.70;;;;;;5049405;28;20321;-69
2021/12/23 07:24:41;;;;;;;21.67;13.35;;;1.30;83.70;;;;;;5039859;28;20393;-69
2021/12/23 07:27:08;;;;;;;26.20;13.90;;;1.30;83.60;;;;;;5016613;28;20104;-69
2021/12/23 07:29:33;;;;;;;27.05;14.50;;;1.30;83.70;;;;;;5042866;28;20037;-69
2021/12/23 07:32:02;;;;;;;24.85;14.85;;;1.30;83.80;;;;;;5031456;28;20047;-69
2021/12/23 07:34:28;;;;;;;24.90;15.52;;;1.20;83.90;;;;;;5034730;28;20065;-69
2021/12/23 07:36:54;;;;;;;25.08;15.63;;;1.30;83.70;;;;;;5048862;28;20218;-69
2021/12/23 07:39:20;;;;;;;26.13;15.35;;;1.30;83.60;;;;;;5034581;28;20037;-69
2021/12/23 07:41:46;;;;;;;26.63;16.38;;;1.30;83.40;;;;;;5048338;28;20090;-68
2021/12/23 07:44:20;;;;;;;28.48;16.73;;;1.20;83.50;;;;;;5048942;28;20524;-69
2021/12/23 07:46:47;;;;;;;28.63;16.88;;;1.20;83.60;;;;;;5022730;28;20041;-69
2021/12/23 07:49:13;;;;;;;26.65;17.20;;;1.20;83.80;;;;;;5039576;28;20077;-69
2021/12/23 07:51:39;;;;;;;24.88;16.52;;;1.20;83.60;;;;;;5039751;28;20094;-70
2021/12/23 07:54:06;;;;;;;25.80;16.73;;;1.20;83.50;;;;;;5032893;28;20045;-68
2021/12/23 07:56:32;;;;;;;28.10;16.10;;;1.20;84.30;;;;;;5038601;28;20493;-69
2021/12/23 07:58:58;;;;;;;28.65;16.73;;;1.30;83.90;;;;;;5029605;28;20045;-69
2021/12/23 08:01:23;;;;;;;28.58;15.82;;;1.30;83.70;;;;;;5044851;28;20106;-68
2021/12/23 08:03:49;;;;;;;28.35;17.65;;;1.20;83.80;;;;;;5047520;28;20048;-68
2021/12/23 08:06:17;;;;;;;31.05;16.73;;;1.20;83.90;;;;;;5045825;28;20115;-68
2021/12/23 08:08:43;;;;;;;29.77;17.10;;;1.20;84.10;;;;;;5047946;28;20037;-68
2021/12/23 08:11:08;;;;;;;29.80;17.33;;;1.10;84.30;;;;;;5040404;28;20428;-68
2021/12/23 08:13:35;;;;;;;30.48;18.08;;;1.10;84.40;;;;;;5040824;28;20072;-68
2021/12/23 08:16:09;;;;;;;28.40;17.17;;;1.10;84.70;;;;;;5035673;28;20065;-68
2021/12/23 08:18:38;;;;;;;27.85;16.98;;;1.10;84.80;;;;;;5038504;28;20048;-66
2021/12/23 08:21:03;;;;;;;33.55;19.10;;;1.10;85.00;;;;;;5045250;28;20512;-67
2021/12/23 08:23:30;;;;;;;25.85;17.10;;;1.20;85.10;;;;;;5038360;28;20120;-67
2021/12/23 08:25:59;;;;;;;29.05;18.23;;;1.20;85.00;;;;;;5040105;28;20110;-66
2021/12/23 08:28:24;;;;;;;29.35;18.85;;;1.20;85.30;;;;;;5035015;28;20041;-67
2021/12/23 08:30:50;;;;;;;33.67;17.55;;;1.20;85.40;;;;;;5036384;28;20515;-67
2021/12/23 08:33:15;;;;;;;34.22;19.38;;;1.10;85.60;;;;;;5046236;28;20076;-67
2021/12/23 08:35:41;;;;;;;33.33;18.95;;;1.10;85.60;;;;;;5030102;28;20063;-67
2021/12/23 08:38:07;;;;;;;30.17;18.05;;;1.20;85.80;;;;;;5046475;28;20401;-67
2021/12/23 08:40:33;;;;;;;31.75;18.77;;;1.20;85.60;;;;;;5047280;28;20052;-67
2021/12/23 08:43:02;;;;;;;29.00;18.67;;;1.20;86.10;;;;;;5043494;28;20049;-67
2021/12/23 08:45:29;;;;;;;35.22;20.90;;;1.20;86.20;;;;;;5047825;28;20045;-67
2021/12/23 08:47:56;;;;;;;32.75;18.20;;;1.20;86.10;;;;;;5038429;28;20056;-70
2021/12/23 08:50:23;;;;;;;28.27;19.02;;;1.30;86.30;;;;;;5035879;28;20048;-68
2021/12/23 08:52:49;;;;;;;30.20;18.65;;;1.30;86.10;;;;;;5061066;28;20045;-70
2021/12/23 08:55:15;;;;;;;30.95;19.13;;;1.30;86.00;;;;;;5045230;28;20537;-69
2021/12/23 08:57:41;;;;;;;32.25;20.50;;;1.40;86.20;;;;;;5047638;28;20041;-69
2021/12/23 09:00:12;;;;;;;31.33;19.60;;;1.40;86.00;;;;;;5046785;28;20106;-69
2021/12/23 09:02:38;;;;;;;31.92;19.67;;;1.40;86.40;;;;;;5028437;28;20144;-68
2021/12/23 09:05:05;;;;;;;34.50;20.48;;;1.40;86.50;;;;;;5010843;28;20558;-69
2021/12/23 09:07:31;;;;;;;34.55;19.48;;;1.40;86.60;;;;;;5026732;28;20099;-69
2021/12/23 09:09:56;;;;;;;39.03;21.52;;;1.30;86.70;;;;;;5028515;28;20038;-69
2021/12/23 09:12:22;;;;;;;34.30;21.38;;;1.30;86.50;;;;;;5028528;28;20077;-68
2021/12/23 09:14:48;;;;;;;35.83;22.75;;;1.30;86.50;;;;;;5045883;28;20041;-69
2021/12/23 09:17:15;;;;;;;38.72;22.10;;;1.30;86.50;;;;;;5047159;28;20501;-69
2021/12/23 09:19:41;;;;;;;39.88;22.85;;;1.20;86.90;;;;;;5047829;28;20096;-68
2021/12/23 09:22:08;;;;;;;38.45;23.35;;;1.20;86.80;;;;;;5030479;28;20049;-69
2021/12/23 09:24:37;;;;;;;44.13;25.90;;;1.30;86.60;;;;;;5047089;28;20160;-68
2021/12/23 09:27:23;;;;;;;46.40;24.27;;;1.20;86.90;;;;;;5044839;28;20045;-68
2021/12/23 09:35:01;;;;;;;46.28;24.52;;;1.30;87.00;;;;;;5028071;28;20057;-68
2021/12/23 09:37:28;;;;;;;47.35;27.38;;;1.30;87.00;;;;;;5036349;28;20050;-68
2021/12/23 09:39:56;;;;;;;53.25;25.92;;;1.30;86.90;;;;;;5042393;28;20049;-68
2021/12/23 09:42:30;;;;;;;52.25;27.15;;;1.30;87.20;;;;;;5009848;28;20057;-68
2021/12/23 09:44:59;;;;;;;55.05;28.20;;;1.30;87.00;;;;;;5044636;28;20486;-68
2021/12/23 09:47:31;;;;;;;50.80;27.25;;;1.30;87.20;;;;;;5047065;28;20045;-68
2021/12/23 09:50:02;;;;;;;51.58;27.35;;;1.40;86.90;;;;;;5048460;28;20056;-68
2021/12/23 09:52:30;;;;;;;54.80;28.10;;;1.30;86.90;;;;;;5050507;28;20056;-68
2021/12/23 09:55:00;;;;;;;57.10;28.45;;;1.30;87.10;;;;;;5048436;28;20041;-68
2021/12/23 09:57:26;;;;;;;59.85;29.75;;;1.30;87.20;;;;;;5051896;28;20045;-68
2021/12/23 09:59:53;;;;;;;60.08;31.10;;;1.40;87.10;;;;;;5043246;28;20060;-68
2021/12/23 10:02:19;;;;;;;60.35;32.17;;;1.40;87.00;;;;;;5051156;28;20183;-68
2021/12/23 10:04:45;;;;;;;60.95;31.20;;;1.40;87.20;;;;;;5050522;28;20132;-67
2021/12/23 10:07:10;;;;;;;64.25;31.52;;;1.50;87.10;;;;;;5038360;28;20438;-67
2021/12/23 10:30:08;;;;;;;70.38;32.00;;;1.60;87.10;;;;;;5049145;28;20118;-68
2021/12/23 10:31:26;;;;;;;68.95;31.15;;;1.60;87.20;;;;;;5050478;28;20049;-67
2021/12/23 10:40:08;;;;;;;60.30;29.73;;;1.70;87.20;;;;;;5045979;28;20048;-67
2021/12/23 10:42:35;;;;;;;63.05;30.35;;;1.70;87.30;;;;;;5048174;28;20049;-68
2021/12/23 10:45:13;;;;;;;71.13;31.42;;;1.60;87.20;;;;;;5049244;28;20061;-68
2021/12/23 10:47:54;;;;;;;62.55;30.70;;;1.60;87.10;;;;;;5047908;28;20102;-68
2021/12/23 10:53:04;;;;;;;56.72;29.00;;;1.60;87.20;;;;;;5048677;28;20103;-68
2021/12/23 10:58:16;;;;;;;61.53;29.30;;;1.70;87.40;;;;;;5048275;28;20049;-68
2021/12/23 11:00:49;;;;;;;58.90;30.23;;;1.60;87.60;;;;;;5048566;28;20041;-68
2021/12/23 11:03:57;;;;;;;56.70;29.17;;;1.50;88.00;;;;;;5047097;28;20517;-68
2021/12/23 11:39:48;;;;;;;;;;;1.60;88.40;;;;;;5021907;28;20095;-68
2021/12/23 11:42:24;;;;;;;47.80;25.88;;;1.40;89.00;;;;;;5040223;28;20340;-68
2021/12/23 11:44:51;;;;;;;59.28;27.83;;;1.40;89.20;;;;;;5048999;28;20052;-68
2021/12/23 11:47:16;;;;;;;54.55;28.50;;;1.40;89.40;;;;;;5049257;28;20053;-68
2021/12/23 11:49:45;;;;;;;53.38;28.98;;;1.50;89.30;;;;;;5049340;28;20044;-68
2021/12/23 11:52:11;;;;;;;53.03;28.67;;;1.50;89.20;;;;;;5049158;28;20043;-68
2021/12/23 11:54:39;;;;;;;51.92;27.67;;;1.50;89.30;;;;;;5048983;28;20041;-68
2021/12/23 11:57:15;;;;;;;56.97;28.83;;;1.60;89.20;;;;;;5049225;28;20479;-68
2021/12/23 11:59:45;;;;;;;52.38;29.92;;;1.50;89.70;;;;;;5049653;28;20109;-68
2021/12/23 12:02:20;;;;;;;51.35;28.75;;;1.50;89.80;;;;;;5047865;28;20060;-68
2021/12/23 12:04:47;;;;;;;57.13;28.95;;;1.60;90.00;;;;;;5034452;28;20080;-68
2021/12/23 12:07:21;;;;;;;54.00;28.70;;;1.60;89.80;;;;;;5049738;28;20493;-68
2021/12/23 12:10:05;;;;;;;55.33;28.38;;;1.60;89.80;;;;;;5049461;28;20052;-68
2021/12/23 12:12:33;;;;;;;59.78;29.88;;;1.70;89.60;;;;;;5048702;28;20543;-68
2021/12/23 12:15:00;;;;;;;54.10;28.55;;;1.60;89.70;;;;;;5047654;28;20110;-68
2021/12/23 12:17:25;;;;;;;52.90;30.58;;;1.70;89.40;;;;;;5047252;28;20045;-68
2021/12/23 12:19:51;;;;;;;57.75;28.30;;;1.70;89.50;;;;;;5046678;28;20649;-68
2021/12/23 12:22:44;;;;;;;53.58;29.95;;;1.70;89.70;;;;;;5046762;28;20106;-68
2021/12/23 12:25:31;;;;;;;54.38;27.65;;;1.80;89.60;;;;;;5047750;28;20072;-68
2021/12/23 12:27:56;;;;;;;54.40;27.70;;;1.80;89.70;;;;;;5046839;28;20064;-68
2021/12/23 12:30:43;;;;;;;56.05;29.30;;;1.80;89.70;;;;;;5031315;28;20553;-68
2021/12/23 12:33:25;;;;;;;55.95;30.15;;;1.90;89.60;;;;;;5049062;28;20098;-68
2021/12/23 12:36:03;;;;;;;63.40;31.67;;;1.90;89.70;;;;;;5045784;28;20374;-68
2021/12/23 12:38:46;;;;;;;54.92;29.35;;;1.90;89.90;;;;;;5049115;28;20528;-68
2021/12/23 12:41:18;;;;;;;56.60;28.13;;;1.90;90.20;;;;;;5043923;28;20037;-68
2021/12/23 12:43:50;;;;;;;60.97;29.02;;;1.90;90.50;;;;;;5048996;28;20557;-68
2021/12/23 12:46:42;;;;;;;61.35;31.15;;;1.90;90.40;;;;;;5048681;28;20084;-68
2021/12/23 12:49:22;;;;;;;53.60;29.38;;;1.90;90.30;;;;;;5046332;28;20048;-68
2021/12/23 12:51:49;;;;;;;56.25;30.15;;;1.90;90.20;;;;;;5044304;28;20484;-68
2021/12/23 12:54:19;;;;;;;55.05;28.67;;;1.90;89.90;;;;;;5047619;28;20041;-68
2021/12/23 12:56:51;;;;;;;58.35;29.38;;;2.00;89.90;;;;;;5031029;28;20049;-68
2021/12/23 12:59:20;;;;;;;54.60;29.05;;;2.00;89.90;;;;;;5049166;28;20072;-68
2021/12/23 13:01:49;;;;;;;59.60;30.00;;;2.00;89.90;;;;;;5048394;28;20509;-68
2021/12/23 13:04:25;;;;;;;59.40;27.70;;;2.10;89.90;;;;;;5024187;28;20049;-68
2021/12/23 13:06:56;;;;;;;60.63;29.45;;;2.20;89.90;;;;;;5047382;28;20056;-68
2021/12/23 13:09:47;;;;;;;62.67;30.75;;;2.20;89.90;;;;;;5048205;28;20124;-68
2021/12/23 13:12:32;;;;;;;58.73;29.97;;;2.20;89.90;;;;;;5047595;28;20084;-68
2021/12/23 13:15:19;;;;;;;57.75;27.55;;;2.20;89.90;;;;;;5048219;28;20291;-68
2021/12/23 13:17:49;;;;;;;65.03;31.17;;;2.30;90.00;;;;;;5048008;28;20056;-68
2021/12/23 13:20:16;;;;;;;66.20;29.58;;;2.30;90.00;;;;;;5048007;28;20494;-68
2021/12/23 13:22:44;;;;;;;56.58;29.50;;;2.30;89.90;;;;;;5030746;28;20067;-68
2021/12/23 13:25:10;;;;;;;57.95;31.75;;;2.30;90.10;;;;;;5050546;28;20500;-68
2021/12/23 13:27:42;;;;;;;60.63;31.13;;;2.30;90.00;;;;;;5041948;28;20049;-69
2021/12/23 13:30:10;;;;;;;59.63;29.00;;;2.40;90.00;;;;;;5042361;28;20088;-68
2021/12/23 13:32:36;;;;;;;57.80;29.33;;;2.40;90.10;;;;;;5031996;28;20068;-68
2021/12/23 13:35:13;;;;;;;56.42;28.50;;;2.50;90.00;;;;;;5050169;28;20045;-68
2021/12/23 13:37:44;;;;;;;60.20;30.70;;;2.50;89.90;;;;;;5051701;28;20075;-68
2021/12/23 13:40:11;;;;;;;55.20;30.05;;;2.50;89.90;;;;;;5051732;28;20509;-68
2021/12/23 13:42:41;;;;;;;55.47;27.88;;;2.50;89.90;;;;;;5051108;28;20057;-68
2021/12/23 13:45:07;;;;;;;54.85;28.05;;;2.50;89.90;;;;;;5049876;28;20045;-68
2021/12/23 13:47:34;;;;;;;59.53;31.48;;;2.50;90.10;;;;;;5033837;28;20045;-68
2021/12/23 13:50:00;;;;;;;54.20;29.27;;;2.50;90.20;;;;;;5044456;28;20052;-69
2021/12/23 13:52:38;;;;;;;34.80;19.67;;;2.60;90.00;;;;;;5049758;28;20043;-68
2021/12/23 13:55:08;;;;;;;45.88;26.15;;;2.70;90.10;;;;;;5044268;28;20052;-69
2021/12/23 13:57:37;;;;;;;52.63;28.90;;;4.10;90.90;;;;;;5051934;28;20044;-70
2021/12/23 14:00:30;;;;;;;53.33;27.95;;;4.30;88.90;;;;;;5050813;28;20402;-69